Overview Statistics Trail Chart Weather Telemetry Raw packets
 

This is the latest recevied weather packets stored in our database for station/object ED1ZAI-14. If no packets are shown the sender has not sent any weather packets the latest 10 day(s).

<< 2 3 4 5 6 7 8 >>
Time Temp. Humidity Pressure Rain* Wind** Luminosity Snow
1788437055 28.89° C 23% 818.8 hPa - - - -
1788435255 28.89° C 24% 818.9 hPa - - - -
1788433455 27.22° C 27% 819 hPa - - - -
1788431655 28.33° C 25% 819.1 hPa - - - -
1788429855 26.67° C 28% 819 hPa - - - -
1788428055 26.11° C 35% 819 hPa - - - -
1788426255 25.56° C 36% 818.9 hPa - - - -
1788424455 24.44° C 41% 818.7 hPa - - - -
1788422655 23.33° C 49% 818.7 hPa - - - -
1788420855 22.78° C 62% 818.7 hPa - - - -
1788419063 19.44° C 76% 818.5 hPa - - - -
1788417254 17.22° C 83% 818.4 hPa - - - -
1788415454 16.11° C 87% 818.2 hPa - - - -
1788413654 15.56° C 87% 818.2 hPa - - - -
1788411854 15.56° C 87% 817.9 hPa - - - -
1788410054 15.56° C 90% 817.9 hPa - - - -
1788408254 15.56° C 91% 817.8 hPa - - - -
1788406454 16.11° C 92% 817.9 hPa - - - -
1788404654 16.11° C 87% 817.9 hPa - - - -
1788402854 16.11° C 81% 817.9 hPa - - - -
1788401054 16.67° C 65% 817.9 hPa - - - -
1788399254 16.67° C 55% 818.1 hPa - - - -
1788397456 16.67° C 51% 818.2 hPa - - - -
1788395658 17.22° C 48% 818.2 hPa - - - -
1788393861 16.11° C 46% 818.3 hPa - - - -

* Rain since midnight (hover to see other rain measurements)
** Current wind speed in m/s (hover to see current wind gust speed)